Time;durP1;ratioP1;P1;durP2;ratioP2;P2;SDS_P1;SDS_P2;PMS_P1;PMS_P2;Temp;Humidity;BMP_temperature;BMP_pressure;BME280_temperature;BME280_humidity;BME280_pressure;Samples;Min_cycle;Max_cycle;Signal;HPM_P1;HPM_P2
2021/05/26 00:02:23;;;;;;;3.83;1.60;;;10.10;97.30;;;;;;4956681;28;20439;-88
2021/05/26 00:04:48;;;;;;;1.93;1.50;;;10.20;97.30;;;;;;4950467;28;20278;-88
2021/05/26 00:07:14;;;;;;;2.30;1.60;;;10.20;97.30;;;;;;4936507;29;20180;-87
2021/05/26 00:09:39;;;;;;;1.77;1.33;;;10.20;97.30;;;;;;4936548;29;20678;-88
2021/05/26 00:12:06;;;;;;;3.97;1.80;;;10.20;97.30;;;;;;4935345;29;20278;-88
2021/05/26 00:14:31;;;;;;;4.43;1.97;;;10.20;97.30;;;;;;4934612;29;20176;-88
2021/05/26 00:16:57;;;;;;;3.00;1.60;;;10.20;97.30;;;;;;4935493;29;20899;-87
2021/05/26 00:19:22;;;;;;;2.03;1.53;;;10.20;97.30;;;;;;4934398;29;20190;-87
2021/05/26 00:21:48;;;;;;;2.80;1.57;;;10.20;97.30;;;;;;4934181;29;20601;-87
2021/05/26 00:24:13;;;;;;;2.57;1.80;;;10.20;97.30;;;;;;4934263;29;20267;-88
2021/05/26 00:26:39;;;;;;;2.20;1.60;;;10.20;97.30;;;;;;4934075;29;20184;-87
2021/05/26 00:29:05;;;;;;;3.17;1.63;;;10.20;97.30;;;;;;4934850;29;20238;-87
2021/05/26 00:31:30;;;;;;;2.63;1.80;;;10.20;97.30;;;;;;4934937;29;20219;-88
2021/05/26 00:33:56;;;;;;;5.27;1.80;;;10.20;97.30;;;;;;4935178;29;20424;-87
2021/05/26 00:36:21;;;;;;;2.07;1.60;;;10.20;97.30;;;;;;4934941;29;20176;-89
2021/05/26 00:38:48;;;;;;;3.30;1.53;;;10.20;97.30;;;;;;4935125;29;20673;-88
2021/05/26 00:41:14;;;;;;;8.00;2.13;;;10.20;97.30;;;;;;4935273;29;20200;-90
2021/05/26 00:43:39;;;;;;;2.40;1.80;;;10.20;97.30;;;;;;4936501;29;20424;-88
2021/05/26 00:46:06;;;;;;;2.47;1.93;;;10.20;97.30;;;;;;4936227;29;20643;-88
2021/05/26 00:48:31;;;;;;;5.00;2.10;;;10.20;97.30;;;;;;4936062;29;20188;-88
2021/05/26 00:50:57;;;;;;;3.70;1.97;;;10.20;97.30;;;;;;4937325;29;20531;-88
2021/05/26 00:53:24;;;;;;;2.97;1.60;;;10.20;97.30;;;;;;4937070;29;20263;-88
2021/05/26 00:55:49;;;;;;;2.37;1.77;;;10.20;97.30;;;;;;4935543;29;20236;-88
2021/05/26 00:58:15;;;;;;;3.57;1.87;;;10.10;97.30;;;;;;4934646;29;20419;-88
2021/05/26 01:00:41;;;;;;;2.50;2.07;;;10.10;97.30;;;;;;4933899;29;20286;-89
2021/05/26 01:03:07;;;;;;;2.23;1.70;;;10.10;97.30;;;;;;4933953;29;20211;-89
2021/05/26 01:05:34;;;;;;;3.43;1.97;;;10.10;97.30;;;;;;4934057;29;20424;-88
2021/05/26 01:08:00;;;;;;;2.07;1.90;;;10.10;97.30;;;;;;4933847;29;20820;-88
2021/05/26 01:10:29;;;;;;;2.90;1.93;;;10.10;97.30;;;;;;4933720;29;20494;-89
2021/05/26 01:12:55;;;;;;;3.03;1.70;;;10.10;97.30;;;;;;4933961;29;20420;-89
2021/05/26 01:15:22;;;;;;;5.10;2.70;;;10.10;97.30;;;;;;4934638;29;20419;-89
2021/05/26 01:17:48;;;;;;;7.20;1.57;;;10.10;97.30;;;;;;4934749;29;20427;-88
2021/05/26 01:20:27;;;;;;;2.50;1.50;;;10.10;97.30;;;;;;4934505;29;20423;-89
2021/05/26 01:22:53;;;;;;;5.50;1.73;;;10.10;97.30;;;;;;4934709;29;20194;-88
2021/05/26 01:25:19;;;;;;;3.83;2.10;;;10.10;97.30;;;;;;4938020;29;20446;-88
2021/05/26 01:27:45;;;;;;;4.90;2.10;;;10.10;97.30;;;;;;4938698;29;20420;-88
2021/05/26 01:30:12;;;;;;;2.00;1.70;;;10.00;97.30;;;;;;4939026;29;20812;-88
2021/05/26 01:32:46;;;;;;;3.67;1.87;;;10.00;97.30;;;;;;4939297;29;20415;-88
2021/05/26 01:35:13;;;;;;;4.20;2.00;;;10.00;97.30;;;;;;4939237;29;20423;-88
2021/05/26 01:37:41;;;;;;;3.30;2.10;;;10.00;97.30;;;;;;4939467;29;20495;-88
2021/05/26 01:40:09;;;;;;;3.40;1.93;;;10.00;97.30;;;;;;4938856;29;20435;-88
2021/05/26 01:42:35;;;;;;;3.33;1.80;;;10.00;97.30;;;;;;4939145;29;20408;-89
2021/05/26 01:45:01;;;;;;;6.20;2.50;;;10.00;97.30;;;;;;4937072;29;20504;-88
2021/05/26 01:47:27;;;;;;;3.20;1.67;;;10.00;97.30;;;;;;4937026;29;20432;-89
2021/05/26 01:49:52;;;;;;;3.20;1.60;;;9.90;97.30;;;;;;4936702;29;20423;-88
2021/05/26 01:52:18;;;;;;;2.20;2.00;;;9.90;97.30;;;;;;4936630;29;20196;-88
2021/05/26 01:54:43;;;;;;;3.47;2.07;;;9.90;97.30;;;;;;4936726;29;20655;-88
2021/05/26 01:57:11;;;;;;;3.77;1.70;;;9.90;97.30;;;;;;4936676;29;20271;-88
2021/05/26 01:59:37;;;;;;;1.77;1.70;;;9.90;97.30;;;;;;4936819;29;20184;-89
2021/05/26 02:02:02;;;;;;;10.10;2.10;;;9.90;97.30;;;;;;4937044;29;20447;-87
2021/05/26 02:04:27;;;;;;;3.67;1.83;;;9.80;97.30;;;;;;4938695;29;20216;-88
2021/05/26 02:07:06;;;;;;;4.83;1.97;;;9.80;97.30;;;;;;4937449;29;20295;-89
2021/05/26 02:09:32;;;;;;;3.53;2.10;;;9.80;97.30;;;;;;4938744;29;20164;-88
2021/05/26 02:14:42;;;;;;;2.33;1.73;;;9.90;97.30;;;;;;4940028;29;20175;-88
2021/05/26 02:17:07;;;;;;;3.97;1.70;;;9.80;97.30;;;;;;4938355;29;20411;-88
2021/05/26 02:19:33;;;;;;;10.13;2.60;;;9.80;97.30;;;;;;4938700;29;20203;-89
2021/05/26 02:21:59;;;;;;;2.47;1.90;;;9.90;97.30;;;;;;4938502;29;20607;-88
2021/05/26 02:24:24;;;;;;;5.57;2.20;;;9.90;97.30;;;;;;4938502;29;20215;-88
2021/05/26 02:26:50;;;;;;;4.70;2.17;;;9.90;97.30;;;;;;4937840;29;20187;-88
2021/05/26 02:29:15;;;;;;;2.60;1.90;;;9.90;97.30;;;;;;4936716;29;20176;-88
2021/05/26 02:31:41;;;;;;;4.63;2.10;;;9.90;97.30;;;;;;4935917;29;20231;-88
2021/05/26 02:34:06;;;;;;;6.50;2.00;;;9.90;97.30;;;;;;4936100;29;20180;-88
2021/05/26 02:36:32;;;;;;;2.37;1.80;;;9.90;97.30;;;;;;4935898;29;20632;-88
2021/05/26 02:38:57;;;;;;;4.60;2.40;;;9.90;97.30;;;;;;4935930;29;20211;-88
2021/05/26 02:41:23;;;;;;;3.00;1.77;;;9.90;97.30;;;;;;4935694;29;20204;-88
2021/05/26 02:43:48;;;;;;;3.10;1.80;;;9.90;97.30;;;;;;4935835;29;20187;-89
2021/05/26 02:46:14;;;;;;;8.20;2.30;;;9.80;97.30;;;;;;4936310;29;20184;-89
2021/05/26 02:48:39;;;;;;;3.37;1.83;;;9.80;97.30;;;;;;4936688;29;20180;-88
2021/05/26 02:51:05;;;;;;;3.43;2.07;;;9.80;97.30;;;;;;4936436;29;20687;-89
2021/05/26 02:53:30;;;;;;;5.03;2.30;;;9.80;97.30;;;;;;4936357;29;20176;-89
2021/05/26 02:55:56;;;;;;;6.50;2.00;;;9.70;97.30;;;;;;4936704;29;20176;-89
2021/05/26 02:58:21;;;;;;;4.07;2.03;;;9.70;97.30;;;;;;4937932;29;20168;-89
2021/05/26 03:00:47;;;;;;;3.93;2.07;;;9.70;97.30;;;;;;4937415;29;20670;-88
2021/05/26 03:03:12;;;;;;;6.17;2.40;;;9.80;97.30;;;;;;4937777;29;20180;-89
2021/05/26 03:05:38;;;;;;;4.00;1.97;;;9.80;97.30;;;;;;4937807;29;20666;-89
2021/05/26 03:08:04;;;;;;;3.43;2.00;;;9.80;97.30;;;;;;4937586;29;20187;-89
2021/05/26 03:10:29;;;;;;;4.37;2.10;;;9.80;97.30;;;;;;4937255;29;20216;-89
2021/05/26 03:12:55;;;;;;;5.63;2.63;;;9.70;97.30;;;;;;4937105;29;20448;-89
2021/05/26 03:15:20;;;;;;;4.50;2.20;;;9.80;97.30;;;;;;4936310;29;20176;-89
2021/05/26 03:17:46;;;;;;;4.03;2.43;;;9.70;97.30;;;;;;4936287;29;20202;-88
2021/05/26 03:20:14;;;;;;;5.20;2.40;;;9.70;97.30;;;;;;4935650;29;20566;-89
2021/05/26 03:22:41;;;;;;;2.47;1.83;;;9.70;97.30;;;;;;4935969;29;20450;-88
2021/05/26 03:25:08;;;;;;;10.73;2.23;;;9.70;97.30;;;;;;4934574;29;20467;-88
2021/05/26 03:27:35;;;;;;;5.53;2.03;;;9.70;97.30;;;;;;4934724;29;20416;-88
2021/05/26 03:30:03;;;;;;;3.43;2.20;;;9.80;97.30;;;;;;4934851;29;20435;-89
2021/05/26 03:32:30;;;;;;;3.80;2.10;;;9.80;97.30;;;;;;4935342;29;20442;-90
2021/05/26 03:34:55;;;;;;;5.60;1.90;;;9.80;97.30;;;;;;4935581;29;20427;-88
2021/05/26 03:37:21;;;;;;;4.87;2.67;;;9.80;97.30;;;;;;4936828;29;20176;-88
2021/05/26 03:39:46;;;;;;;7.20;1.90;;;9.90;97.30;;;;;;4936771;29;20198;-89
2021/05/26 03:42:14;;;;;;;2.63;2.17;;;9.90;97.30;;;;;;4935651;29;20195;-89
2021/05/26 03:44:40;;;;;;;4.67;2.50;;;9.90;97.30;;;;;;4935921;29;20296;-90
2021/05/26 03:47:05;;;;;;;6.23;2.50;;;10.00;97.30;;;;;;4937058;29;20959;-87
2021/05/26 03:49:31;;;;;;;5.97;2.80;;;10.00;97.30;;;;;;4936689;29;20551;-87
2021/05/26 03:51:57;;;;;;;5.27;2.70;;;10.00;97.30;;;;;;4936441;29;20271;-87
2021/05/26 03:54:22;;;;;;;4.60;3.13;;;10.00;97.30;;;;;;4936682;29;20560;-87
2021/05/26 03:56:48;;;;;;;5.03;2.67;;;10.00;97.30;;;;;;4936566;29;20203;-87
2021/05/26 03:59:15;;;;;;;4.40;2.30;;;10.00;97.30;;;;;;4936738;29;20184;-89
2021/05/26 04:01:41;;;;;;;3.00;2.13;;;10.00;97.30;;;;;;4935583;29;20278;-90
2021/05/26 04:04:09;;;;;;;10.67;2.10;;;10.00;97.30;;;;;;4934484;29;20428;-87
2021/05/26 04:06:35;;;;;;;4.50;2.63;;;10.00;97.30;;;;;;4932926;29;20243;-88
2021/05/26 04:09:00;;;;;;;3.60;2.50;;;10.00;97.30;;;;;;4935978;29;20419;-88
2021/05/26 04:11:26;;;;;;;11.70;2.23;;;10.00;97.30;;;;;;4935837;29;20212;-88
2021/05/26 04:13:51;;;;;;;4.57;2.07;;;10.00;97.30;;;;;;4934636;29;20215;-88
2021/05/26 04:16:17;;;;;;;6.57;2.67;;;10.00;97.30;;;;;;4935730;29;20631;-89
2021/05/26 04:18:42;;;;;;;3.33;2.17;;;10.00;97.30;;;;;;4935221;29;20180;-88
2021/05/26 04:21:08;;;;;;;3.80;1.90;;;10.00;97.30;;;;;;4936582;29;20239;-89
2021/05/26 04:23:33;;;;;;;5.13;2.20;;;10.10;97.30;;;;;;4936544;29;20198;-88
2021/05/26 04:25:59;;;;;;;5.03;2.20;;;10.10;97.30;;;;;;4936311;29;20186;-88
2021/05/26 04:28:25;;;;;;;5.93;2.20;;;10.10;97.30;;;;;;4936156;29;20188;-88
2021/05/26 04:30:50;;;;;;;6.13;2.43;;;10.10;97.30;;;;;;4935204;29;20298;-88
2021/05/26 04:33:18;;;;;;;4.43;2.27;;;10.10;97.30;;;;;;4936017;29;20180;-88
2021/05/26 04:35:45;;;;;;;4.20;2.23;;;10.10;97.30;;;;;;4936704;29;20176;-88
2021/05/26 04:38:11;;;;;;;3.70;2.07;;;10.10;97.30;;;;;;4936119;29;20462;-88
2021/05/26 04:40:37;;;;;;;4.10;2.10;;;10.20;97.30;;;;;;4936196;29;20443;-88
2021/05/26 04:43:03;;;;;;;6.43;2.20;;;10.20;97.30;;;;;;4935970;29;20416;-88
2021/05/26 04:45:28;;;;;;;4.33;2.20;;;10.20;97.30;;;;;;4935707;29;20195;-88
2021/05/26 04:47:54;;;;;;;3.83;2.10;;;10.20;97.30;;;;;;4934939;29;20427;-88
2021/05/26 04:50:20;;;;;;;2.20;2.00;;;10.20;97.30;;;;;;4934186;29;20716;-88
2021/05/26 04:52:45;;;;;;;6.17;2.23;;;10.20;97.30;;;;;;4934253;29;20585;-88
2021/05/26 04:55:12;;;;;;;4.13;2.53;;;10.30;97.30;;;;;;4934243;29;20415;-89
2021/05/26 04:57:37;;;;;;;4.83;2.40;;;10.30;97.30;;;;;;4933947;29;20560;-88
2021/05/26 05:00:05;;;;;;;5.90;2.10;;;10.30;97.30;;;;;;4940863;29;20428;-88
2021/05/26 05:02:30;;;;;;;4.33;2.03;;;10.40;97.30;;;;;;4950749;29;20184;-88
2021/05/26 05:04:56;;;;;;;3.00;2.10;;;10.40;97.30;;;;;;4953130;29;20459;-89
2021/05/26 05:07:21;;;;;;;4.33;2.17;;;10.50;97.30;;;;;;4952609;29;20283;-88
2021/05/26 05:09:47;;;;;;;4.70;2.40;;;10.50;97.30;;;;;;4952425;29;20192;-89
2021/05/26 05:12:12;;;;;;;2.60;2.40;;;10.60;97.30;;;;;;4954082;29;20204;-88
2021/05/26 05:14:38;;;;;;;4.33;2.00;;;10.60;97.30;;;;;;4953003;29;20168;-88
2021/05/26 05:17:03;;;;;;;4.33;1.77;;;10.70;97.30;;;;;;4952670;29;20204;-89
2021/05/26 05:19:29;;;;;;;4.13;2.17;;;10.70;97.30;;;;;;4954711;29;20176;-88
2021/05/26 05:21:54;;;;;;;5.13;1.87;;;10.70;97.30;;;;;;4940751;29;20707;-87
2021/05/26 05:24:20;;;;;;;10.80;2.53;;;10.80;97.30;;;;;;4938394;29;20183;-88
2021/05/26 05:26:46;;;;;;;3.50;1.70;;;10.80;97.30;;;;;;4939979;29;20176;-88
2021/05/26 05:29:11;;;;;;;4.83;2.37;;;10.80;97.30;;;;;;4938316;29;20211;-88
2021/05/26 05:31:37;;;;;;;5.47;2.03;;;10.90;97.30;;;;;;4938551;29;20216;-88
2021/05/26 05:34:03;;;;;;;6.63;2.20;;;10.90;97.30;;;;;;4939860;29;20176;-87
2021/05/26 05:36:39;;;;;;;;;;;;;;;;;;;;;
2021/05/26 05:39:05;;;;;;;3.73;2.07;;;10.90;97.30;;;;;;4939652;29;20182;-88
2021/05/26 05:41:31;;;;;;;6.43;2.50;;;11.00;97.30;;;;;;4938419;29;20479;-88
2021/05/26 05:43:56;;;;;;;4.87;2.30;;;11.00;97.30;;;;;;4937704;29;20184;-88
2021/05/26 05:46:22;;;;;;;4.90;2.60;;;11.00;97.30;;;;;;4936975;29;20184;-88
2021/05/26 05:48:47;;;;;;;6.67;2.23;;;11.10;97.30;;;;;;4936253;29;20180;-89
2021/05/26 05:51:13;;;;;;;5.87;2.20;;;11.00;97.30;;;;;;4935055;29;20222;-88
2021/05/26 05:53:38;;;;;;;9.00;2.23;;;11.10;97.30;;;;;;4935243;29;20275;-88
2021/05/26 05:56:04;;;;;;;4.10;2.50;;;11.10;97.30;;;;;;4935641;29;20180;-88
2021/05/26 05:58:30;;;;;;;9.33;2.67;;;11.10;97.30;;;;;;4936029;29;20259;-88
2021/05/26 06:00:55;;;;;;;7.03;3.30;;;11.10;97.30;;;;;;4936073;29;20208;-88
2021/05/26 06:03:23;;;;;;;4.70;2.20;;;11.10;97.30;;;;;;4936944;29;20258;-88
2021/05/26 06:05:48;;;;;;;5.77;2.43;;;11.20;97.30;;;;;;4936650;29;20183;-88
2021/05/26 06:08:14;;;;;;;8.20;2.37;;;11.20;97.30;;;;;;4937617;29;20451;-89
2021/05/26 06:10:39;;;;;;;6.83;2.70;;;11.30;97.30;;;;;;4938178;29;20216;-88
2021/05/26 06:13:08;;;;;;;7.63;2.83;;;11.30;97.30;;;;;;4942240;29;20164;-89
2021/05/26 06:15:35;;;;;;;2.50;2.13;;;11.40;97.30;;;;;;4959754;28;20183;-88
2021/05/26 06:18:01;;;;;;;4.90;2.30;;;11.50;97.30;;;;;;4946093;28;20435;-88
2021/05/26 06:20:27;;;;;;;3.67;2.10;;;11.50;97.30;;;;;;4936800;29;20458;-88
2021/05/26 06:22:53;;;;;;;6.23;2.10;;;11.60;97.30;;;;;;4937913;29;20420;-90
2021/05/26 06:25:18;;;;;;;5.83;2.70;;;11.70;97.30;;;;;;4935591;29;20183;-89
2021/05/26 06:27:44;;;;;;;4.30;2.60;;;11.70;97.30;;;;;;4934845;29;20204;-89
2021/05/26 06:30:12;;;;;;;5.90;2.50;;;11.70;97.30;;;;;;4934703;29;20223;-87
2021/05/26 06:32:37;;;;;;;7.77;3.07;;;11.70;97.30;;;;;;4934811;29;20184;-89
2021/05/26 06:35:04;;;;;;;8.73;3.07;;;11.80;97.30;;;;;;4934731;29;20427;-88
2021/05/26 06:37:30;;;;;;;4.77;2.20;;;11.90;97.30;;;;;;4934486;29;20257;-87
2021/05/26 06:39:55;;;;;;;9.23;2.73;;;12.00;97.30;;;;;;4936537;29;20456;-89
2021/05/26 06:42:21;;;;;;;6.20;2.33;;;12.10;97.30;;;;;;4935088;29;20215;-88
2021/05/26 06:44:47;;;;;;;5.50;2.33;;;12.20;97.30;;;;;;4935190;29;20211;-88
2021/05/26 06:47:13;;;;;;;4.03;2.50;;;12.20;97.30;;;;;;4934857;29;20176;-89
2021/05/26 06:49:38;;;;;;;14.20;3.10;;;12.20;97.30;;;;;;4935294;29;20507;-88
2021/05/26 06:52:04;;;;;;;8.30;2.20;;;12.30;97.30;;;;;;4935431;29;20774;-89
2021/05/26 06:54:29;;;;;;;4.63;2.30;;;12.30;96.90;;;;;;4936752;29;20180;-87
2021/05/26 06:56:55;;;;;;;3.50;2.10;;;12.40;96.40;;;;;;4936486;29;20180;-89
2021/05/26 06:59:21;;;;;;;4.37;2.20;;;12.50;96.70;;;;;;4938224;29;20195;-89
2021/05/26 07:01:47;;;;;;;6.20;2.60;;;12.60;97.30;;;;;;4937062;29;20239;-90
2021/05/26 07:04:13;;;;;;;6.40;3.00;;;12.70;97.20;;;;;;4937960;29;20223;-89
2021/05/26 07:06:43;;;;;;;2.57;2.00;;;12.80;97.30;;;;;;4939807;29;20428;-87
2021/05/26 07:09:08;;;;;;;5.63;2.30;;;12.90;97.00;;;;;;4935849;29;20195;-89
2021/05/26 07:11:34;;;;;;;7.13;1.97;;;12.90;96.20;;;;;;4935530;29;20851;-90
2021/05/26 07:13:59;;;;;;;3.90;1.93;;;12.90;96.60;;;;;;4934395;29;20180;-88
2021/05/26 07:16:25;;;;;;;3.40;1.97;;;12.90;94.90;;;;;;4934365;29;20184;-91
2021/05/26 07:18:57;;;;;;;4.70;2.20;;;12.80;94.50;;;;;;4935349;29;20180;-89
2021/05/26 07:21:22;;;;;;;9.67;2.10;;;12.70;95.20;;;;;;4934439;29;20548;-89
2021/05/26 07:23:51;;;;;;;3.20;2.20;;;12.70;95.60;;;;;;4934239;29;20435;-90
2021/05/26 07:26:20;;;;;;;7.10;2.00;;;12.70;97.00;;;;;;4938178;29;20211;-89
2021/05/26 07:28:46;;;;;;;3.90;2.23;;;12.80;96.40;;;;;;4937953;29;20427;-89
2021/05/26 07:31:11;;;;;;;4.37;2.40;;;12.80;95.90;;;;;;4933918;29;20986;-90
2021/05/26 07:33:37;;;;;;;4.43;2.27;;;12.80;96.30;;;;;;4935457;29;20215;-89
2021/05/26 07:36:03;;;;;;;5.60;2.30;;;12.90;96.00;;;;;;4937830;29;20562;-89
2021/05/26 07:38:30;;;;;;;6.40;2.70;;;12.90;96.30;;;;;;4937078;29;20176;-89
2021/05/26 07:40:56;;;;;;;3.60;2.10;;;12.90;94.80;;;;;;4933986;29;20470;-89
2021/05/26 07:43:22;;;;;;;7.10;2.60;;;12.70;94.10;;;;;;4936730;29;20428;-89
2021/05/26 07:45:55;;;;;;;9.77;2.20;;;12.70;95.10;;;;;;4938227;29;20200;-89
2021/05/26 07:48:23;;;;;;;4.90;2.17;;;12.70;95.20;;;;;;4937946;29;20501;-89
2021/05/26 07:50:49;;;;;;;5.63;2.40;;;12.70;95.20;;;;;;4935134;29;20503;-89
2021/05/26 07:53:14;;;;;;;7.10;2.33;;;12.70;95.50;;;;;;4931094;29;20850;-89
2021/05/26 07:55:42;;;;;;;4.90;2.13;;;12.70;95.70;;;;;;4933724;29;20215;-88
2021/05/26 07:58:07;;;;;;;8.03;2.33;;;12.70;96.00;;;;;;4933081;29;20259;-89
2021/05/26 08:00:33;;;;;;;3.53;2.43;;;12.70;95.90;;;;;;4933765;29;20531;-90
2021/05/26 08:03:05;;;;;;;15.80;2.70;;;12.80;95.80;;;;;;4934223;29;20262;-89
2021/05/26 08:05:33;;;;;;;2.57;2.10;;;12.80;95.70;;;;;;4933863;29;20179;-89
2021/05/26 08:08:06;;;;;;;4.73;2.50;;;12.70;95.60;;;;;;4934411;29;20420;-89
2021/05/26 08:10:32;;;;;;;5.87;2.70;;;12.70;95.70;;;;;;4933805;29;20475;-89
2021/05/26 08:12:59;;;;;;;6.40;2.80;;;12.70;95.90;;;;;;4934659;29;20431;-90
2021/05/26 08:15:25;;;;;;;3.97;2.50;;;12.80;96.70;;;;;;4934418;29;20319;-89
2021/05/26 08:17:50;;;;;;;3.57;2.30;;;12.80;96.30;;;;;;4933846;29;20942;-89
2021/05/26 08:20:16;;;;;;;6.33;2.70;;;12.70;96.10;;;;;;4935074;29;20203;-89
2021/05/26 08:22:41;;;;;;;3.60;2.03;;;12.70;96.40;;;;;;4936816;29;20191;-89
2021/05/26 08:25:10;;;;;;;3.43;2.70;;;12.70;96.80;;;;;;4935349;29;20648;-90
2021/05/26 08:27:35;;;;;;;7.40;3.27;;;12.60;96.50;;;;;;4935633;29;20186;-89
2021/05/26 08:30:01;;;;;;;4.93;2.73;;;12.60;97.30;;;;;;4934996;29;20411;-90
2021/05/26 08:32:27;;;;;;;2.70;2.47;;;12.70;97.20;;;;;;4936230;29;20203;-89
2021/05/26 08:34:55;;;;;;;6.73;2.30;;;12.70;97.00;;;;;;4943694;29;20190;-89
2021/05/26 08:37:23;;;;;;;3.00;2.00;;;12.70;97.20;;;;;;4941976;29;20819;-89
2021/05/26 08:39:51;;;;;;;3.97;2.60;;;12.80;97.30;;;;;;4940785;29;20724;-90
2021/05/26 08:42:20;;;;;;;6.47;2.50;;;12.80;96.90;;;;;;4939731;29;20471;-89
2021/05/26 08:44:46;;;;;;;7.07;2.63;;;12.80;96.80;;;;;;4939811;29;20420;-90
2021/05/26 08:47:17;;;;;;;4.93;2.30;;;12.80;96.70;;;;;;4942640;29;20478;-89
2021/05/26 08:49:45;;;;;;;4.80;2.30;;;12.90;97.30;;;;;;4947702;29;20470;-89
2021/05/26 08:52:13;;;;;;;6.57;3.37;;;12.80;97.30;;;;;;4938645;29;20508;-89
2021/05/26 08:54:39;;;;;;;3.93;2.43;;;12.80;97.30;;;;;;4941207;29;20434;-89
2021/05/26 08:57:05;;;;;;;7.97;2.67;;;12.80;97.30;;;;;;4943656;29;20423;-89
2021/05/26 08:59:31;;;;;;;3.67;2.30;;;12.80;97.30;;;;;;4941937;29;20179;-89
2021/05/26 09:01:56;;;;;;;3.50;2.80;;;12.70;97.30;;;;;;4939666;29;20263;-89
2021/05/26 09:04:25;;;;;;;5.53;2.27;;;12.70;97.30;;;;;;4943457;29;20254;-90
2021/05/26 09:07:22;;;;;;;6.30;2.60;;;12.60;97.30;;;;;;4939493;29;20204;-89
2021/05/26 09:09:59;;;;;;;4.13;2.17;;;12.60;97.30;;;;;;4941873;29;20978;-90
2021/05/26 09:12:41;;;;;;;5.77;2.97;;;12.70;97.30;;;;;;4940984;29;20478;-90
2021/05/26 09:15:13;;;;;;;6.77;2.93;;;12.70;97.30;;;;;;4940852;29;20431;-89
2021/05/26 09:17:40;;;;;;;7.20;2.73;;;12.70;97.30;;;;;;4941411;29;20431;-90
2021/05/26 09:20:45;;;;;;;4.20;2.40;;;12.70;97.30;;;;;;4944263;29;20424;-89
2021/05/26 09:23:13;;;;;;;3.07;2.30;;;12.60;97.30;;;;;;4867136;29;20604;-89
2021/05/26 09:25:44;;;;;;;7.70;2.33;;;12.50;97.30;;;;;;4885765;29;20520;-89
2021/05/26 09:28:19;;;;;;;6.93;2.73;;;12.50;97.30;;;;;;4915061;29;20846;-90
2021/05/26 09:30:49;;;;;;;4.57;2.93;;;12.60;97.30;;;;;;4938280;29;20482;-90
2021/05/26 09:33:30;;;;;;;6.90;3.13;;;12.70;97.30;;;;;;4940524;29;20419;-90
2021/05/26 09:36:24;;;;;;;6.63;2.90;;;12.70;97.30;;;;;;4942739;29;20407;-90
2021/05/26 09:38:59;;;;;;;6.20;2.70;;;12.70;97.30;;;;;;4931178;29;20447;-89
2021/05/26 09:41:27;;;;;;;4.23;2.30;;;12.60;97.30;;;;;;4943417;29;20461;-86
2021/05/26 09:44:03;;;;;;;5.63;2.90;;;12.50;97.30;;;;;;4942194;29;20842;-87
2021/05/26 09:46:33;;;;;;;7.33;3.20;;;12.50;97.30;;;;;;4939928;29;20429;-89
2021/05/26 09:49:14;;;;;;;4.90;2.73;;;12.50;97.30;;;;;;4938833;29;20419;-89
2021/05/26 09:51:41;;;;;;;5.30;2.90;;;12.40;97.30;;;;;;4937368;29;20475;-90
2021/05/26 09:54:15;;;;;;;5.37;2.70;;;12.50;97.30;;;;;;4936880;29;20416;-89
2021/05/26 09:56:42;;;;;;;8.90;3.37;;;12.60;97.30;;;;;;4936712;29;20433;-90
2021/05/26 09:59:08;;;;;;;4.80;2.97;;;12.50;97.30;;;;;;4934517;29;20439;-90
2021/05/26 10:01:35;;;;;;;4.53;3.13;;;12.50;97.30;;;;;;4936387;29;20447;-89
2021/05/26 10:04:01;;;;;;;7.43;3.20;;;12.50;97.30;;;;;;4937922;29;20231;-90
2021/05/26 10:06:30;;;;;;;8.77;3.10;;;12.50;97.30;;;;;;4937496;29;20420;-90
2021/05/26 10:08:56;;;;;;;8.50;3.10;;;12.60;97.30;;;;;;4936481;29;20780;-90
2021/05/26 10:11:22;;;;;;;11.57;2.73;;;12.60;97.30;;;;;;4936164;29;20522;-90
2021/05/26 10:13:50;;;;;;;5.20;2.83;;;12.50;97.30;;;;;;4940240;29;20434;-90
2021/05/26 10:16:21;;;;;;;4.80;2.60;;;12.50;97.30;;;;;;4934467;29;20420;-89
2021/05/26 10:18:47;;;;;;;4.67;3.10;;;12.40;97.30;;;;;;4934056;29;20961;-89
2021/05/26 10:21:24;;;;;;;4.50;2.80;;;12.40;97.30;;;;;;4934866;29;20467;-90
2021/05/26 10:23:55;;;;;;;5.23;2.93;;;12.30;97.30;;;;;;4936825;29;20423;-90
2021/05/26 10:27:01;;;;;;;6.43;2.90;;;12.40;97.30;;;;;;4955218;23;20500;-80
2021/05/26 10:29:33;;;;;;;12.43;4.37;;;12.40;97.30;;;;;;4919399;29;20940;-77
2021/05/26 10:32:14;;;;;;;4.83;3.07;;;12.40;97.30;;;;;;4934230;29;20475;-78
2021/05/26 10:34:42;;;;;;;7.63;3.23;;;12.40;97.30;;;;;;4933746;29;20478;-77
2021/05/26 10:37:14;;;;;;;8.77;3.30;;;12.40;97.30;;;;;;4932486;29;20447;-77
2021/05/26 10:39:40;;;;;;;4.23;2.70;;;12.50;97.30;;;;;;4931371;29;20420;-77
2021/05/26 10:42:23;;;;;;;5.57;3.20;;;12.60;97.30;;;;;;4926786;29;20447;-78
2021/05/26 10:45:06;;;;;;;5.70;2.93;;;12.60;97.30;;;;;;4934559;29;20938;-78
2021/05/26 10:47:38;;;;;;;6.60;3.00;;;12.70;97.30;;;;;;4934129;29;20439;-78
2021/05/26 10:50:43;;;;;;;4.00;2.80;;;12.70;97.30;;;;;;4933677;29;20427;-77
2021/05/26 10:53:10;;;;;;;6.77;3.00;;;12.80;97.30;;;;;;4934720;29;20427;-78
2021/05/26 10:55:46;;;;;;;4.53;2.57;;;12.90;97.30;;;;;;4928866;29;20963;-78
2021/05/26 10:58:13;;;;;;;9.93;3.03;;;12.90;97.30;;;;;;4914230;29;20412;-78
2021/05/26 11:00:41;;;;;;;5.80;2.17;;;12.90;97.30;;;;;;4915939;29;20464;-77
2021/05/26 11:03:26;;;;;;;5.93;2.87;;;12.90;97.30;;;;;;4915073;29;20431;-77
2021/05/26 11:05:53;;;;;;;7.20;3.10;;;13.00;97.30;;;;;;4914657;29;20428;-77
2021/05/26 11:11:25;;;;;;;7.53;3.67;;;13.10;97.30;;;;;;4916991;29;20523;-78
2021/05/26 11:14:00;;;;;;;6.60;2.60;;;13.10;97.30;;;;;;4914803;29;20960;-78
2021/05/26 11:16:41;;;;;;;5.83;3.07;;;13.10;97.30;;;;;;4915500;29;20423;-77
2021/05/26 11:19:12;;;;;;;5.17;2.93;;;13.10;97.30;;;;;;4900647;29;20491;-77
2021/05/26 11:21:39;;;;;;;4.47;2.53;;;13.10;97.30;;;;;;4913257;29;20457;-78
2021/05/26 11:24:05;;;;;;;4.10;2.63;;;13.20;97.30;;;;;;4913846;29;20447;-78
2021/05/26 11:26:36;;;;;;;3.33;2.70;;;13.20;97.30;;;;;;4914250;29;20472;-78
2021/05/26 11:29:14;;;;;;;5.13;3.03;;;13.30;97.30;;;;;;4913482;29;20448;-79
2021/05/26 11:31:40;;;;;;;7.00;3.07;;;13.40;97.30;;;;;;4914313;29;20468;-79
2021/05/26 11:34:13;;;;;;;4.90;3.17;;;13.40;97.30;;;;;;4914008;29;20475;-80
2021/05/26 11:36:46;;;;;;;5.13;2.30;;;13.40;97.30;;;;;;4914108;29;20188;-79
2021/05/26 11:39:25;;;;;;;7.27;3.00;;;13.40;97.30;;;;;;4915565;29;20954;-78
2021/05/26 11:41:50;;;;;;;5.20;2.30;;;13.30;97.30;;;;;;4912787;29;20468;-78
2021/05/26 11:44:16;;;;;;;5.70;2.27;;;13.40;97.30;;;;;;4913053;29;20439;-79
2021/05/26 11:46:45;;;;;;;10.67;2.40;;;13.30;97.30;;;;;;4914459;29;20196;-78
2021/05/26 11:49:12;;;;;;;3.97;2.33;;;13.20;97.30;;;;;;4912506;29;20185;-78
2021/05/26 11:51:39;;;;;;;4.47;2.30;;;13.10;97.30;;;;;;4913781;29;20472;-78
2021/05/26 11:54:06;;;;;;;2.70;2.50;;;13.00;97.30;;;;;;4914233;29;20425;-78
2021/05/26 11:56:32;;;;;;;3.50;2.30;;;13.00;97.30;;;;;;4912948;29;20486;-78
2021/05/26 11:58:58;;;;;;;3.20;2.30;;;12.90;97.30;;;;;;4913011;29;20470;-77
2021/05/26 12:01:33;;;;;;;3.30;2.10;;;13.00;97.30;;;;;;4913283;29;21071;-78
2021/05/26 12:03:59;;;;;;;4.60;2.43;;;12.90;97.30;;;;;;4910100;29;20184;-78
2021/05/26 12:06:25;;;;;;;6.57;2.40;;;13.00;97.30;;;;;;4913743;29;20523;-77
2021/05/26 12:08:53;;;;;;;4.00;2.27;;;13.00;97.30;;;;;;4914071;29;20460;-78
2021/05/26 12:11:21;;;;;;;3.67;2.17;;;13.00;97.30;;;;;;4913634;29;20585;-78
2021/05/26 12:13:48;;;;;;;2.63;2.33;;;13.00;97.30;;;;;;4910755;29;20421;-79
2021/05/26 12:16:25;;;;;;;3.80;2.53;;;13.10;97.30;;;;;;4930086;23;20433;-78
2021/05/26 12:18:56;;;;;;;5.37;2.23;;;13.10;97.30;;;;;;4911207;29;20829;-78
2021/05/26 12:21:23;;;;;;;4.23;2.07;;;13.00;97.30;;;;;;4913016;29;20445;-76
2021/05/26 12:23:49;;;;;;;2.80;2.50;;;13.00;97.30;;;;;;4913674;29;20916;-77
2021/05/26 12:26:26;;;;;;;3.97;2.60;;;12.90;97.30;;;;;;4914267;29;20420;-78
2021/05/26 12:28:56;;;;;;;5.90;2.50;;;12.90;97.30;;;;;;4915139;29;20652;-79
2021/05/26 12:31:22;;;;;;;5.30;3.03;;;13.00;97.30;;;;;;4913752;29;20472;-79
2021/05/26 12:33:51;;;;;;;5.67;2.83;;;13.10;97.30;;;;;;4913502;29;20912;-78
2021/05/26 12:36:18;;;;;;;3.70;3.00;;;13.20;97.30;;;;;;4913187;29;20936;-78
2021/05/26 12:38:45;;;;;;;5.40;3.13;;;13.40;97.30;;;;;;4913608;29;20424;-79
2021/05/26 12:41:24;;;;;;;7.00;2.80;;;13.70;97.30;;;;;;4915260;29;20971;-80
2021/05/26 12:43:51;;;;;;;5.83;2.80;;;13.70;97.30;;;;;;4914537;29;20421;-79
2021/05/26 12:46:39;;;;;;;6.20;2.50;;;13.70;97.30;;;;;;4913488;29;20424;-77
2021/05/26 12:49:07;;;;;;;3.93;3.10;;;13.70;97.30;;;;;;4914564;29;20432;-79
2021/05/26 12:51:45;;;;;;;5.73;2.40;;;13.60;97.30;;;;;;4912056;29;20508;-79
2021/05/26 12:54:12;;;;;;;2.90;2.00;;;13.40;97.30;;;;;;4913405;29;20986;-76
2021/05/26 12:56:38;;;;;;;2.77;2.13;;;13.30;97.30;;;;;;4913306;29;20432;-77
2021/05/26 12:59:04;;;;;;;3.87;2.17;;;13.00;97.30;;;;;;4912990;29;20503;-77